Time;durP1;ratioP1;P1;durP2;ratioP2;P2;SDS_P1;SDS_P2;PMS_P1;PMS_P2;Temp;Humidity;BMP_temperature;BMP_pressure;BME280_temperature;BME280_humidity;BME280_pressure;Samples;Min_cycle;Max_cycle;Signal;HPM_P1;HPM_P2
2022/03/28 00:00:36;;;;;;;36.45;21.20;;;;;;;;;;6186946;23;20020;-86
2022/03/28 00:03:03;;;;;;;35.08;20.75;;;;;;;;;;6159929;23;20501;-86
2022/03/28 00:05:29;;;;;;;44.85;23.65;;;;;;;;;;6160715;23;20016;-87
2022/03/28 00:07:55;;;;;;;46.17;25.95;;;;;;;;;;6159802;23;20342;-87
2022/03/28 00:10:21;;;;;;;43.42;23.83;;;;;;;;;;6160098;23;20024;-86
2022/03/28 00:12:47;;;;;;;43.35;24.42;;;;;;;;;;6159730;23;20064;-86
2022/03/28 00:15:13;;;;;;;42.85;24.73;;;;;;;;;;6160093;23;20438;-86
2022/03/28 00:17:39;;;;;;;38.20;22.30;;;;;;;;;;6159942;23;20024;-87
2022/03/28 00:20:07;;;;;;;34.50;21.10;;;;;;;;;;6160150;23;20070;-86
2022/03/28 00:22:33;;;;;;;33.55;20.58;;;;;;;;;;6159731;23;20017;-86
2022/03/28 00:24:59;;;;;;;27.70;18.25;;;;;;;;;;6160134;23;20092;-87
2022/03/28 00:27:25;;;;;;;28.27;16.70;;;;;;;;;;6159786;23;20021;-86
2022/03/28 00:29:51;;;;;;;26.90;16.23;;;;;;;;;;6159906;23;20028;-86
2022/03/28 00:32:17;;;;;;;23.35;14.48;;;;;;;;;;6159644;23;20045;-86
2022/03/28 00:34:43;;;;;;;23.30;13.25;;;;;;;;;;6186627;23;20063;-86
2022/03/28 00:37:10;;;;;;;23.30;13.70;;;;;;;;;;6159689;23;20431;-87
2022/03/28 00:39:36;;;;;;;22.52;13.18;;;;;;;;;;6160330;23;20017;-86
2022/03/28 00:42:02;;;;;;;19.05;12.80;;;;;;;;;;6159547;23;20021;-87
2022/03/28 00:44:30;;;;;;;20.55;12.63;;;;;;;;;;6159831;23;20016;-86
2022/03/28 00:46:56;;;;;;;18.45;11.82;;;;;;;;;;6159373;23;20088;-86
2022/03/28 00:49:22;;;;;;;20.92;13.25;;;;;;;;;;6186114;23;20063;-86
2022/03/28 00:51:48;;;;;;;18.75;12.73;;;;;;;;;;6159149;23;20017;-86
2022/03/28 00:54:14;;;;;;;18.63;12.45;;;;;;;;;;6159568;23;20024;-86
2022/03/28 00:56:42;;;;;;;14.38;9.55;;;;;;;;;;6185893;23;20021;-88
2022/03/28 00:59:08;;;;;;;21.50;10.48;;;;;;;;;;6159743;23;20438;-86
2022/03/28 01:01:34;;;;;;;18.23;10.40;;;;;;;;;;6159431;23;20091;-87
2022/03/28 01:04:00;;;;;;;17.83;11.00;;;;;;;;;;6186241;23;20012;-87
2022/03/28 01:06:26;;;;;;;15.82;10.55;;;;;;;;;;6159257;23;20017;-86
2022/03/28 01:08:52;;;;;;;17.92;11.85;;;;;;;;;;6186235;23;20009;-87
2022/03/28 01:11:19;;;;;;;20.85;12.30;;;;;;;;;;6134873;23;20554;-87
2022/03/28 01:13:45;;;;;;;20.63;13.13;;;;;;;;;;6159252;23;20088;-86
2022/03/28 01:16:11;;;;;;;22.63;12.32;;;;;;;;;;6159586;23;20024;-86
2022/03/28 01:18:37;;;;;;;20.27;12.80;;;;;;;;;;6159802;23;20088;-86
2022/03/28 01:21:04;;;;;;;17.30;10.60;;;;;;;;;;6159577;23;20064;-87
2022/03/28 01:23:30;;;;;;;20.65;10.68;;;;;;;;;;6159028;23;20013;-86
2022/03/28 01:25:57;;;;;;;18.63;10.50;;;;;;;;;;6159931;23;20382;-86
2022/03/28 01:28:24;;;;;;;19.25;10.68;;;;;;;;;;6185776;23;20013;-86
2022/03/28 01:30:50;;;;;;;17.20;9.77;;;;;;;;;;6159532;23;20017;-86
2022/03/28 01:33:16;;;;;;;18.95;11.73;;;;;;;;;;6159198;23;20013;-86
2022/03/28 01:35:44;;;;;;;17.58;11.23;;;;;;;;;;6159435;23;20024;-86
2022/03/28 01:38:11;;;;;;;19.10;12.50;;;;;;;;;;6159177;23;20017;-86
2022/03/28 01:40:39;;;;;;;20.58;12.52;;;;;;;;;;6185637;23;20446;-86
2022/03/28 01:43:05;;;;;;;22.38;13.25;;;;;;;;;;6159018;23;20028;-86
2022/03/28 01:45:31;;;;;;;20.77;13.07;;;;;;;;;;6159250;23;20017;-86
2022/03/28 01:47:57;;;;;;;19.92;13.63;;;;;;;;;;6158902;23;20040;-86
2022/03/28 01:50:24;;;;;;;22.60;14.15;;;;;;;;;;6159138;23;20046;-86
2022/03/28 01:52:50;;;;;;;23.02;14.63;;;;;;;;;;6184991;23;20532;-87
2022/03/28 01:55:16;;;;;;;22.77;14.50;;;;;;;;;;6159259;23;20013;-86
2022/03/28 01:57:43;;;;;;;22.38;15.88;;;;;;;;;;6158939;23;20016;-86
2022/03/28 02:00:11;;;;;;;24.00;16.10;;;;;;;;;;6159017;23;20024;-86
2022/03/28 02:02:37;;;;;;;22.40;15.15;;;;;;;;;;6158843;23;20088;-86
2022/03/28 02:05:03;;;;;;;25.48;16.20;;;;;;;;;;6159130;23;20461;-86
2022/03/28 02:07:30;;;;;;;25.50;16.38;;;;;;;;;;6185228;23;20040;-86
2022/03/28 02:09:55;;;;;;;28.70;17.35;;;;;;;;;;6158977;23;20410;-86
2022/03/28 02:12:22;;;;;;;26.02;17.23;;;;;;;;;;6158801;23;20089;-86
2022/03/28 02:14:48;;;;;;;23.80;17.38;;;;;;;;;;6158972;23;20426;-86
2022/03/28 02:17:14;;;;;;;27.33;18.65;;;;;;;;;;6185039;23;20013;-86
2022/03/28 02:19:40;;;;;;;32.25;19.45;;;;;;;;;;6185199;23;20017;-86
2022/03/28 02:22:07;;;;;;;26.38;18.60;;;;;;;;;;6158887;23;20021;-86
2022/03/28 02:24:33;;;;;;;27.75;18.15;;;;;;;;;;6185392;23;20013;-86
2022/03/28 02:26:59;;;;;;;27.75;18.02;;;;;;;;;;6159234;23;20071;-87
2022/03/28 02:29:25;;;;;;;25.90;17.02;;;;;;;;;;6158810;23;20017;-87
2022/03/28 02:31:51;;;;;;;26.45;18.10;;;;;;;;;;6158840;23;20017;-86
2022/03/28 02:34:17;;;;;;;22.08;15.68;;;;;;;;;;6158614;23;20020;-86
2022/03/28 02:36:43;;;;;;;20.60;13.77;;;;;;;;;;6158854;23;20048;-86
2022/03/28 02:39:10;;;;;;;19.00;13.40;;;;;;;;;;6158571;23;20044;-86
2022/03/28 02:41:37;;;;;;;17.30;12.50;;;;;;;;;;6159288;23;20381;-86
2022/03/28 02:44:03;;;;;;;20.02;12.45;;;;;;;;;;6185067;23;20013;-86
2022/03/28 02:46:29;;;;;;;16.80;11.55;;;;;;;;;;6134242;23;20075;-86
2022/03/28 02:48:55;;;;;;;21.08;13.05;;;;;;;;;;6158458;23;20036;-86
2022/03/28 02:51:21;;;;;;;20.88;13.10;;;;;;;;;;6158693;23;20021;-86
2022/03/28 02:53:47;;;;;;;23.10;12.60;;;;;;;;;;6153283;23;20471;-87
2022/03/28 02:56:13;;;;;;;20.60;12.20;;;;;;;;;;6155658;23;20021;-86
2022/03/28 02:58:39;;;;;;;18.90;12.02;;;;;;;;;;6153510;23;20465;-86
2022/03/28 03:01:05;;;;;;;16.80;11.52;;;;;;;;;;6153759;23;20013;-86
2022/03/28 03:03:31;;;;;;;21.27;12.43;;;;;;;;;;6153350;23;20096;-86
2022/03/28 03:05:57;;;;;;;15.63;10.68;;;;;;;;;;6153716;23;20060;-86
2022/03/28 03:08:23;;;;;;;19.42;11.65;;;;;;;;;;6153394;23;20026;-87
2022/03/28 03:10:49;;;;;;;15.63;10.45;;;;;;;;;;6153716;23;20018;-86
2022/03/28 03:13:15;;;;;;;16.67;10.27;;;;;;;;;;6153433;23;20014;-86
2022/03/28 03:15:41;;;;;;;18.80;10.43;;;;;;;;;;6155565;23;20338;-86
2022/03/28 03:18:07;;;;;;;17.58;10.48;;;;;;;;;;6154948;23;20101;-86
2022/03/28 03:20:33;;;;;;;18.75;11.25;;;;;;;;;;6155252;23;20017;-86
2022/03/28 03:23:03;;;;;;;16.42;10.63;;;;;;;;;;6155378;23;20049;-87
2022/03/28 03:25:29;;;;;;;17.63;11.95;;;;;;;;;;6155707;23;20182;-86
2022/03/28 03:27:55;;;;;;;19.60;11.88;;;;;;;;;;6155292;23;20014;-86
2022/03/28 03:30:21;;;;;;;18.15;11.30;;;;;;;;;;6155632;23;20025;-86
2022/03/28 03:32:47;;;;;;;19.35;11.63;;;;;;;;;;6155470;23;20119;-86
2022/03/28 03:35:13;;;;;;;18.27;12.07;;;;;;;;;;6155366;23;20017;-86
2022/03/28 03:37:40;;;;;;;17.77;10.35;;;;;;;;;;6155943;23;20045;-87
2022/03/28 03:40:07;;;;;;;18.77;12.13;;;;;;;;;;6155326;23;20025;-86
2022/03/28 03:42:33;;;;;;;16.02;9.80;;;;;;;;;;6155500;23;20037;-87
2022/03/28 03:44:59;;;;;;;15.23;8.00;;;;;;;;;;6130567;23;20013;-86
2022/03/28 03:47:25;;;;;;;17.58;8.05;;;;;;;;;;6157305;23;20017;-86
2022/03/28 03:49:51;;;;;;;13.95;8.45;;;;;;;;;;6155153;23;20526;-86
2022/03/28 03:52:18;;;;;;;15.55;7.47;;;;;;;;;;6155299;23;20106;-86
2022/03/28 03:54:44;;;;;;;14.48;7.72;;;;;;;;;;6154996;23;20017;-86
2022/03/28 03:57:11;;;;;;;14.02;7.40;;;;;;;;;;6155451;23;20357;-86
2022/03/28 03:59:37;;;;;;;17.33;8.02;;;;;;;;;;6154971;23;20386;-86
2022/03/28 04:02:03;;;;;;;17.30;7.50;;;;;;;;;;6157140;23;20092;-86
2022/03/28 04:04:29;;;;;;;17.98;8.10;;;;;;;;;;6155031;23;20447;-86
2022/03/28 04:06:55;;;;;;;18.50;7.97;;;;;;;;;;6155220;23;20018;-86
2022/03/28 04:09:21;;;;;;;14.98;6.07;;;;;;;;;;6156822;23;20028;-87
2022/03/28 04:11:47;;;;;;;12.05;5.78;;;;;;;;;;6155105;23;20447;-86
2022/03/28 04:14:13;;;;;;;14.35;5.68;;;;;;;;;;6154928;23;20041;-86
2022/03/28 04:16:39;;;;;;;8.55;4.63;;;;;;;;;;6155132;23;20469;-86
2022/03/28 04:19:05;;;;;;;11.02;4.35;;;;;;;;;;6154954;23;20017;-86
2022/03/28 04:21:31;;;;;;;8.60;3.92;;;;;;;;;;6156724;23;20064;-86
2022/03/28 04:23:57;;;;;;;9.25;3.03;;;;;;;;;;6154843;23;20013;-86
2022/03/28 04:26:23;;;;;;;6.43;3.13;;;;;;;;;;6156738;23;20005;-86
2022/03/28 04:28:49;;;;;;;9.15;3.28;;;;;;;;;;6154825;23;20021;-86
2022/03/28 04:31:16;;;;;;;7.60;3.50;;;;;;;;;;6156586;23;20010;-87
2022/03/28 04:33:42;;;;;;;7.95;3.97;;;;;;;;;;6130068;23;20017;-87
2022/03/28 04:36:08;;;;;;;7.35;3.80;;;;;;;;;;6155241;23;20014;-86
2022/03/28 04:38:34;;;;;;;8.95;4.00;;;;;;;;;;6154701;23;20022;-86
2022/03/28 04:41:00;;;;;;;11.13;4.20;;;;;;;;;;6155060;23;20021;-86
2022/03/28 04:43:26;;;;;;;7.38;3.40;;;;;;;;;;6154757;23;20025;-86
2022/03/28 04:45:52;;;;;;;10.00;4.80;;;;;;;;;;6156539;23;20335;-86
2022/03/28 04:48:18;;;;;;;7.93;3.10;;;;;;;;;;6154789;23;20017;-87
2022/03/28 04:50:44;;;;;;;6.28;2.80;;;;;;;;;;6154645;23;20020;-86
2022/03/28 04:53:10;;;;;;;6.88;2.58;;;;;;;;;;6154724;23;20017;-86
2022/03/28 04:55:36;;;;;;;5.03;1.38;;;;;;;;;;6154657;23;20391;-87
2022/03/28 04:58:02;;;;;;;4.50;1.77;;;;;;;;;;6154816;23;20084;-86
2022/03/28 05:00:28;;;;;;;5.55;2.00;;;;;;;;;;6154550;23;20394;-86
2022/03/28 05:02:54;;;;;;;5.57;2.50;;;;;;;;;;6154729;23;20108;-86
2022/03/28 05:05:20;;;;;;;5.03;2.00;;;;;;;;;;6129900;23;20343;-87
2022/03/28 05:07:46;;;;;;;6.38;2.22;;;;;;;;;;6130242;23;20352;-87
2022/03/28 05:10:12;;;;;;;6.55;2.38;;;;;;;;;;6154476;23;20010;-87
2022/03/28 05:12:38;;;;;;;7.75;2.45;;;;;;;;;;6130034;23;20020;-87
2022/03/28 05:15:05;;;;;;;6.32;3.00;;;;;;;;;;6154600;23;20038;-86
2022/03/28 05:17:31;;;;;;;6.75;3.13;;;;;;;;;;6154727;23;20029;-87
2022/03/28 05:19:59;;;;;;;7.82;3.53;;;;;;;;;;6156030;23;20013;-87
2022/03/28 05:22:25;;;;;;;8.10;3.55;;;;;;;;;;6154563;23;20017;-87
2022/03/28 05:24:51;;;;;;;6.40;2.90;;;;;;;;;;6155541;23;20466;-87
2022/03/28 05:27:18;;;;;;;7.53;3.28;;;;;;;;;;6154353;23;20513;-87
2022/03/28 05:29:44;;;;;;;9.07;4.05;;;;;;;;;;6154463;23;20043;-86
2022/03/28 05:32:10;;;;;;;9.77;4.38;;;;;;;;;;6154393;23;20048;-86
2022/03/28 05:34:36;;;;;;;12.98;5.85;;;;;;;;;;6155835;23;20092;-86
2022/03/28 05:37:04;;;;;;;13.32;6.43;;;;;;;;;;6154471;23;20463;-86
2022/03/28 05:39:32;;;;;;;16.00;7.90;;;;;;;;;;6156391;23;20014;-86
2022/03/28 05:41:58;;;;;;;17.65;8.50;;;;;;;;;;6154329;23;20076;-87
2022/03/28 05:44:24;;;;;;;19.65;9.55;;;;;;;;;;6155965;23;20071;-86
2022/03/28 05:46:51;;;;;;;22.95;10.50;;;;;;;;;;6154266;23;20017;-86
2022/03/28 05:49:18;;;;;;;25.02;11.57;;;;;;;;;;6154004;23;20056;-86
2022/03/28 05:51:44;;;;;;;26.58;13.43;;;;;;;;;;6129657;23;20481;-86
2022/03/28 05:54:10;;;;;;;34.75;16.27;;;;;;;;;;6153865;23;20088;-86
2022/03/28 05:56:36;;;;;;;34.75;15.68;;;;;;;;;;6154417;23;20096;-86
2022/03/28 05:59:02;;;;;;;34.38;16.02;;;;;;;;;;6154211;23;20041;-86
2022/03/28 06:01:29;;;;;;;32.08;15.50;;;;;;;;;;6153983;23;20089;-86
2022/03/28 06:03:55;;;;;;;31.52;15.60;;;;;;;;;;6155996;23;20084;-85
2022/03/28 06:06:21;;;;;;;31.60;17.08;;;;;;;;;;6155420;23;20045;-86
2022/03/28 06:08:47;;;;;;;35.50;16.88;;;;;;;;;;6154137;23;20018;-87
2022/03/28 06:11:13;;;;;;;29.50;14.98;;;;;;;;;;6153888;23;20018;-85
2022/03/28 06:13:39;;;;;;;28.40;15.63;;;;;;;;;;6154034;23;20020;-87
2022/03/28 06:16:05;;;;;;;30.27;15.23;;;;;;;;;;6153726;23;20018;-86
2022/03/28 06:18:31;;;;;;;31.23;16.38;;;;;;;;;;6129534;23;20022;-86
2022/03/28 06:20:57;;;;;;;29.05;15.13;;;;;;;;;;6153781;23;20024;-85
2022/03/28 06:23:23;;;;;;;26.98;14.85;;;;;;;;;;6153932;23;20014;-88
2022/03/28 06:25:49;;;;;;;25.02;15.10;;;;;;;;;;6153810;23;20158;-85
2022/03/28 06:28:15;;;;;;;26.50;15.50;;;;;;;;;;6153821;23;20017;-86
2022/03/28 06:30:41;;;;;;;25.40;15.10;;;;;;;;;;6153779;23;20022;-85
2022/03/28 06:33:07;;;;;;;27.30;14.45;;;;;;;;;;6155401;23;20005;-86
2022/03/28 06:35:33;;;;;;;22.60;15.15;;;;;;;;;;6129274;23;20068;-85
2022/03/28 06:37:59;;;;;;;27.88;15.23;;;;;;;;;;6153830;23;20039;-86
2022/03/28 06:40:27;;;;;;;26.33;14.85;;;;;;;;;;6155134;23;20021;-86
2022/03/28 06:42:53;;;;;;;25.23;14.63;;;;;;;;;;6155670;23;20020;-85
2022/03/28 06:45:20;;;;;;;24.40;13.90;;;;;;;;;;6153828;23;20045;-86
2022/03/28 06:47:51;;;;;;;27.50;15.27;;;;;;;;;;6153798;23;20096;-86
2022/03/28 06:50:17;;;;;;;23.23;13.32;;;;;;;;;;6155556;23;20228;-85
2022/03/28 06:52:43;;;;;;;18.48;12.23;;;;;;;;;;6154870;23;20009;-86
2022/03/28 06:55:10;;;;;;;22.67;13.35;;;;;;;;;;6158251;23;20112;-86
2022/03/28 06:57:36;;;;;;;25.88;13.00;;;;;;;;;;6159020;23;20021;-85
2022/03/28 07:00:03;;;;;;;25.77;13.15;;;;;;;;;;6156898;23;20028;-86
2022/03/28 07:02:30;;;;;;;27.27;13.43;;;;;;;;;;6185076;23;20576;-85
2022/03/28 07:04:57;;;;;;;28.48;13.73;;;;;;;;;;6185099;23;20040;-86
2022/03/28 07:07:23;;;;;;;25.77;14.10;;;;;;;;;;6133867;23;20017;-86
2022/03/28 07:09:49;;;;;;;24.52;13.88;;;;;;;;;;6158640;23;20316;-86
2022/03/28 07:12:15;;;;;;;22.83;14.35;;;;;;;;;;6158384;23;20067;-86
2022/03/28 07:14:42;;;;;;;22.60;12.77;;;;;;;;;;6158561;23;20017;-86
2022/03/28 07:17:08;;;;;;;23.63;12.73;;;;;;;;;;6158350;23;20169;-86
2022/03/28 07:19:34;;;;;;;22.13;12.82;;;;;;;;;;6158485;23;20021;-86
2022/03/28 07:22:00;;;;;;;23.98;12.35;;;;;;;;;;6154535;23;20017;-87
2022/03/28 07:24:26;;;;;;;18.98;11.15;;;;;;;;;;6158492;23;20020;-91
2022/03/28 07:26:53;;;;;;;21.60;11.75;;;;;;;;;;6158306;23;20021;-88
2022/03/28 07:29:20;;;;;;;16.88;10.15;;;;;;;;;;6133271;23;20012;-86
2022/03/28 07:31:46;;;;;;;14.63;9.90;;;;;;;;;;6158104;23;20017;-86
2022/03/28 07:34:31;;;;;;;18.50;10.80;;;;;;;;;;6157781;23;20516;-87
2022/03/28 07:36:57;;;;;;;17.52;9.93;;;;;;;;;;6158228;23;20021;-86
2022/03/28 07:39:23;;;;;;;15.68;8.93;;;;;;;;;;6158322;23;20455;-87
2022/03/28 07:41:50;;;;;;;12.63;8.60;;;;;;;;;;6184694;23;20013;-86
2022/03/28 07:44:16;;;;;;;15.30;9.38;;;;;;;;;;6157753;23;20016;-86
2022/03/28 07:46:44;;;;;;;17.60;9.55;;;;;;;;;;6158050;23;20358;-87
2022/03/28 07:49:10;;;;;;;16.10;10.10;;;;;;;;;;6156995;23;20013;-86
2022/03/28 07:51:36;;;;;;;13.20;7.72;;;;;;;;;;6158168;23;20048;-86
2022/03/28 07:54:02;;;;;;;14.15;7.57;;;;;;;;;;6156823;23;20023;-86
2022/03/28 07:56:29;;;;;;;12.13;7.10;;;;;;;;;;6158170;23;20009;-86
2022/03/28 07:58:55;;;;;;;10.27;6.85;;;;;;;;;;6182938;23;20013;-86
2022/03/28 08:01:21;;;;;;;11.15;6.75;;;;;;;;;;6158070;23;20046;-86
2022/03/28 08:03:47;;;;;;;9.63;5.30;;;;;;;;;;6157076;23;20016;-87
2022/03/28 08:06:13;;;;;;;10.65;5.53;;;;;;;;;;6184812;23;20442;-86
2022/03/28 08:08:39;;;;;;;9.27;5.50;;;;;;;;;;6158937;23;20351;-86
2022/03/28 08:11:08;;;;;;;9.05;5.80;;;;;;;;;;6159968;23;20019;-86
2022/03/28 08:13:37;;;;;;;9.20;5.85;;;;;;;;;;6160021;23;20018;-86
2022/03/28 08:16:04;;;;;;;11.10;5.90;;;;;;;;;;6135391;23;20013;-86
2022/03/28 08:18:30;;;;;;;12.57;7.15;;;;;;;;;;6184428;23;20024;-86
2022/03/28 08:20:56;;;;;;;16.23;8.10;;;;;;;;;;6158013;23;20017;-86
2022/03/28 08:23:22;;;;;;;14.18;8.32;;;;;;;;;;6159813;23;20024;-86
2022/03/28 08:25:51;;;;;;;13.10;8.23;;;;;;;;;;6159669;23;20086;-85
2022/03/28 08:28:17;;;;;;;14.30;7.50;;;;;;;;;;6159875;23;20044;-87
2022/03/28 08:30:44;;;;;;;11.77;7.28;;;;;;;;;;6159973;23;20017;-87
2022/03/28 08:33:09;;;;;;;12.43;7.38;;;;;;;;;;6159571;23;20020;-86
2022/03/28 08:35:36;;;;;;;11.95;7.38;;;;;;;;;;6159931;23;20013;-87
2022/03/28 08:38:02;;;;;;;14.63;8.93;;;;;;;;;;6159537;23;20021;-86
2022/03/28 08:40:28;;;;;;;13.10;8.23;;;;;;;;;;6159981;23;20021;-87
2022/03/28 08:42:54;;;;;;;12.98;8.10;;;;;;;;;;6159476;23;20017;-86
2022/03/28 08:45:20;;;;;;;11.48;7.40;;;;;;;;;;6186476;23;20013;-86
2022/03/28 08:47:47;;;;;;;12.38;7.85;;;;;;;;;;6159539;23;20023;-86
2022/03/28 08:50:14;;;;;;;12.35;8.00;;;;;;;;;;6159901;23;20032;-85
2022/03/28 08:52:41;;;;;;;12.55;8.32;;;;;;;;;;6159261;23;20012;-86
2022/03/28 08:55:07;;;;;;;13.40;7.32;;;;;;;;;;6159721;23;20028;-88
2022/03/28 08:57:34;;;;;;;12.98;8.63;;;;;;;;;;6159426;23;20019;-87
2022/03/28 09:00:00;;;;;;;13.85;9.00;;;;;;;;;;6159619;23;20091;-87
2022/03/28 09:02:39;;;;;;;13.57;8.65;;;;;;;;;;6159425;23;20044;-87
2022/03/28 09:05:06;;;;;;;15.52;9.40;;;;;;;;;;6186399;23;20020;-92
2022/03/28 09:07:31;;;;;;;13.88;8.23;;;;;;;;;;6159802;23;20017;-91
2022/03/28 09:10:02;;;;;;;14.73;9.15;;;;;;;;;;6160263;23;20454;-92
2022/03/28 09:12:28;;;;;;;13.45;8.25;;;;;;;;;;6160007;23;20267;-91
2022/03/28 09:14:58;;;;;;;14.80;8.68;;;;;;;;;;6159735;23;20092;-86
2022/03/28 09:17:26;;;;;;;14.05;8.60;;;;;;;;;;6159120;23;20449;-85
2022/03/28 09:19:53;;;;;;;14.52;8.80;;;;;;;;;;6159613;23;20052;-86
2022/03/28 09:22:27;;;;;;;14.38;8.18;;;;;;;;;;6159120;23;20059;-85
2022/03/28 09:24:55;;;;;;;12.82;7.88;;;;;;;;;;6159464;23;20346;-85
2022/03/28 09:27:25;;;;;;;15.57;11.57;;;;;;;;;;6159117;23;20024;-84
2022/03/28 09:29:54;;;;;;;15.70;8.88;;;;;;;;;;6185825;23;20017;-85
2022/03/28 09:32:24;;;;;;;15.18;8.57;;;;;;;;;;6159133;23;20017;-85
2022/03/28 09:35:03;;;;;;;15.55;9.95;;;;;;;;;;6186054;23;20041;-85
2022/03/28 09:37:29;;;;;;;13.73;9.02;;;;;;;;;;6159078;23;20480;-85
2022/03/28 09:39:55;;;;;;;14.88;9.80;;;;;;;;;;6159344;23;20013;-85
2022/03/28 09:42:21;;;;;;;14.10;9.80;;;;;;;;;;6158897;23;20097;-85
2022/03/28 09:44:50;;;;;;;14.93;9.93;;;;;;;;;;6159297;23;20013;-85
2022/03/28 09:47:18;;;;;;;14.82;9.25;;;;;;;;;;6159143;23;20017;-85
2022/03/28 09:49:45;;;;;;;14.20;9.70;;;;;;;;;;6159137;23;20017;-85
2022/03/28 09:52:11;;;;;;;14.82;9.13;;;;;;;;;;6158860;23;20047;-85
2022/03/28 09:54:57;;;;;;;15.57;9.85;;;;;;;;;;6185342;23;20017;-86
2022/03/28 09:57:27;;;;;;;18.65;9.57;;;;;;;;;;6159041;23;20012;-85
2022/03/28 09:59:54;;;;;;;15.25;9.35;;;;;;;;;;6159223;23;20016;-85
2022/03/28 10:02:22;;;;;;;15.10;9.55;;;;;;;;;;6158845;23;20025;-85
2022/03/28 10:04:49;;;;;;;16.77;10.13;;;;;;;;;;6159043;23;20047;-85
2022/03/28 10:07:15;;;;;;;16.75;10.05;;;;;;;;;;6185439;23;20403;-85
2022/03/28 10:09:42;;;;;;;16.63;10.20;;;;;;;;;;6159537;23;20459;-85
2022/03/28 10:12:08;;;;;;;16.38;10.43;;;;;;;;;;6158931;23;20063;-85
2022/03/28 10:14:34;;;;;;;16.95;10.48;;;;;;;;;;6157200;23;20049;-85
2022/03/28 10:17:04;;;;;;;17.27;11.23;;;;;;;;;;6158757;23;20021;-85
2022/03/28 10:19:37;;;;;;;15.85;10.60;;;;;;;;;;6157569;23;20020;-85
2022/03/28 10:22:05;;;;;;;16.30;10.63;;;;;;;;;;6158693;23;20453;-86
2022/03/28 10:24:34;;;;;;;18.40;11.15;;;;;;;;;;6157549;23;20537;-86
2022/03/28 10:27:01;;;;;;;16.63;10.32;;;;;;;;;;6185411;23;20044;-86
2022/03/28 10:29:38;;;;;;;17.13;10.95;;;;;;;;;;6130736;23;20013;-85
2022/03/28 10:32:07;;;;;;;17.60;11.30;;;;;;;;;;6158640;23;20320;-86
2022/03/28 10:34:41;;;;;;;15.38;10.98;;;;;;;;;;6158824;23;20013;-86
2022/03/28 10:37:44;;;;;;;16.80;11.57;;;;;;;;;;6158779;23;20068;-87
2022/03/28 10:40:12;;;;;;;15.88;11.30;;;;;;;;;;6041516;23;20433;-85
2022/03/28 10:42:59;;;;;;;16.58;11.30;;;;;;;;;;6138522;23;20464;-85
2022/03/28 10:45:32;;;;;;;16.05;11.48;;;;;;;;;;6138714;23;20477;-85
2022/03/28 10:47:59;;;;;;;17.98;12.05;;;;;;;;;;6158452;23;20087;-85
2022/03/28 10:50:25;;;;;;;18.52;12.77;;;;;;;;;;6185480;23;20104;-84
2022/03/28 10:53:09;;;;;;;21.02;12.52;;;;;;;;;;6158215;23;20449;-84
2022/03/28 10:55:43;;;;;;;19.85;13.43;;;;;;;;;;6159048;23;20434;-84
2022/03/28 10:58:16;;;;;;;21.23;13.57;;;;;;;;;;6158523;23;20017;-84
2022/03/28 11:01:01;;;;;;;19.55;11.95;;;;;;;;;;6185281;23;20017;-84
2022/03/28 11:03:35;;;;;;;20.30;12.23;;;;;;;;;;6185047;23;20020;-84
2022/03/28 11:06:01;;;;;;;18.83;11.82;;;;;;;;;;6185328;23;20009;-84
2022/03/28 11:08:39;;;;;;;20.17;11.50;;;;;;;;;;6184940;23;20013;-84
2022/03/28 11:11:16;;;;;;;18.90;12.52;;;;;;;;;;6158666;23;20021;-84
2022/03/28 11:13:42;;;;;;;16.90;11.43;;;;;;;;;;6184895;23;20017;-84
2022/03/28 11:16:18;;;;;;;16.48;12.02;;;;;;;;;;6158962;23;20013;-84
2022/03/28 11:18:44;;;;;;;16.55;11.45;;;;;;;;;;6158392;23;20451;-84
2022/03/28 11:21:11;;;;;;;17.55;12.82;;;;;;;;;;6158627;23;20350;-84
2022/03/28 11:23:37;;;;;;;17.20;12.73;;;;;;;;;;6184899;23;20033;-84
2022/03/28 11:26:04;;;;;;;18.40;12.98;;;;;;;;;;6158629;23;20021;-86
2022/03/28 11:28:32;;;;;;;18.15;12.35;;;;;;;;;;6158262;23;20350;-85
2022/03/28 11:31:03;;;;;;;17.00;12.45;;;;;;;;;;6184854;23;20071;-85
2022/03/28 11:33:30;;;;;;;18.55;12.65;;;;;;;;;;6158271;23;20076;-85
2022/03/28 11:35:57;;;;;;;17.63;12.57;;;;;;;;;;6133985;23;20437;-85
2022/03/28 11:38:26;;;;;;;18.33;13.38;;;;;;;;;;6184638;23;20017;-85
2022/03/28 11:40:53;;;;;;;18.75;12.65;;;;;;;;;;6186059;23;20043;-85
2022/03/28 11:43:26;;;;;;;18.33;12.18;;;;;;;;;;6160039;23;20013;-85
2022/03/28 11:45:54;;;;;;;21.40;13.13;;;;;;;;;;6161323;23;20020;-84
2022/03/28 11:48:20;;;;;;;18.92;13.82;;;;;;;;;;6186683;23;20020;-85
2022/03/28 11:50:47;;;;;;;18.23;12.70;;;;;;;;;;6160349;23;20009;-85
2022/03/28 11:53:17;;;;;;;18.33;13.15;;;;;;;;;;6130325;23;20021;-85
2022/03/28 11:55:47;;;;;;;19.00;13.73;;;;;;;;;;6156901;23;20083;-85
2022/03/28 11:58:16;;;;;;;19.48;13.85;;;;;;;;;;6155176;23;20025;-85
2022/03/28 12:00:43;;;;;;;21.27;13.98;;;;;;;;;;6156798;23;20095;-85
2022/03/28 12:03:12;;;;;;;19.58;13.68;;;;;;;;;;6156817;23;20009;-85
2022/03/28 12:05:43;;;;;;;20.90;13.93;;;;;;;;;;6157174;23;20060;-85
2022/03/28 12:08:14;;;;;;;19.02;14.02;;;;;;;;;;6154973;23;20018;-85
2022/03/28 12:10:59;;;;;;;18.35;13.15;;;;;;;;;;6155255;23;20021;-85
2022/03/28 12:13:25;;;;;;;20.52;13.27;;;;;;;;;;6156461;23;20013;-85
2022/03/28 12:15:53;;;;;;;20.83;14.15;;;;;;;;;;6155260;23;20076;-85
2022/03/28 12:18:20;;;;;;;19.30;13.80;;;;;;;;;;6155052;23;20028;-84
2022/03/28 12:20:50;;;;;;;20.00;14.02;;;;;;;;;;6157009;23;20014;-85
2022/03/28 12:23:17;;;;;;;19.05;13.57;;;;;;;;;;6156790;23;20028;-84
2022/03/28 12:25:44;;;;;;;19.10;12.95;;;;;;;;;;6156556;23;20343;-85
2022/03/28 12:28:11;;;;;;;21.23;13.75;;;;;;;;;;6154844;23;20021;-84
2022/03/28 12:30:40;;;;;;;21.92;14.32;;;;;;;;;;6154941;23;20041;-84
2022/03/28 12:33:11;;;;;;;19.58;13.93;;;;;;;;;;6154992;23;20025;-84
2022/03/28 12:35:46;;;;;;;18.48;14.32;;;;;;;;;;6156755;23;20173;-85
2022/03/28 12:38:15;;;;;;;19.85;13.70;;;;;;;;;;6155046;23;20028;-84
2022/03/28 12:40:44;;;;;;;18.95;13.93;;;;;;;;;;6155241;23;20399;-84
2022/03/28 12:43:10;;;;;;;17.42;13.10;;;;;;;;;;6130282;23;20088;-84
2022/03/28 12:45:38;;;;;;;20.70;13.98;;;;;;;;;;6154806;23;20041;-84
2022/03/28 12:48:06;;;;;;;18.67;13.90;;;;;;;;;;6154787;23;20021;-84
2022/03/28 12:50:34;;;;;;;19.73;14.50;;;;;;;;;;6156229;23;20398;-84
2022/03/28 12:53:10;;;;;;;21.73;14.77;;;;;;;;;;6158979;23;20020;-84
2022/03/28 12:55:37;;;;;;;24.02;15.43;;;;;;;;;;6159685;23;20085;-84
2022/03/28 12:58:03;;;;;;;22.02;15.85;;;;;;;;;;6159820;23;20017;-84
2022/03/28 13:00:30;;;;;;;22.52;15.48;;;;;;;;;;6159570;23;20059;-84
2022/03/28 13:03:01;;;;;;;21.58;15.85;;;;;;;;;;6159576;23;20021;-84
2022/03/28 13:05:27;;;;;;;21.67;15.48;;;;;;;;;;6159463;23;20044;-85
2022/03/28 13:07:53;;;;;;;22.75;15.82;;;;;;;;;;6159843;23;20460;-84
2022/03/28 13:10:24;;;;;;;20.85;15.35;;;;;;;;;;6159421;23;20096;-84
2022/03/28 13:12:55;;;;;;;24.85;16.38;;;;;;;;;;6159604;23;20017;-84
2022/03/28 13:15:22;;;;;;;24.50;17.20;;;;;;;;;;6159472;23;20013;-84
2022/03/28 13:18:01;;;;;;;24.58;16.02;;;;;;;;;;6186242;23;20017;-84
2022/03/28 13:20:27;;;;;;;25.90;15.93;;;;;;;;;;6186067;23;20016;-84
2022/03/28 13:22:55;;;;;;;24.55;15.63;;;;;;;;;;6185903;23;20113;-84
2022/03/28 13:25:21;;;;;;;20.33;15.10;;;;;;;;;;6159635;23;20009;-84
2022/03/28 13:28:02;;;;;;;24.52;15.70;;;;;;;;;;6159416;23;20307;-84
2022/03/28 13:30:32;;;;;;;24.10;15.55;;;;;;;;;;6159250;23;20089;-84
2022/03/28 13:32:59;;;;;;;20.48;14.90;;;;;;;;;;6159330;23;20060;-84
2022/03/28 13:35:25;;;;;;;19.30;14.60;;;;;;;;;;6159092;23;20041;-85
2022/03/28 13:37:59;;;;;;;20.17;14.95;;;;;;;;;;6186017;23;20077;-84
2022/03/28 13:40:25;;;;;;;23.02;15.30;;;;;;;;;;6159108;23;20052;-84
2022/03/28 13:42:52;;;;;;;20.25;15.88;;;;;;;;;;6159286;23;20028;-85
2022/03/28 13:45:18;;;;;;;23.52;16.02;;;;;;;;;;6158922;23;20036;-84
2022/03/28 13:47:45;;;;;;;20.05;15.27;;;;;;;;;;6185872;23;20331;-84
2022/03/28 13:50:11;;;;;;;24.08;16.02;;;;;;;;;;6159086;23;20013;-84
2022/03/28 13:52:37;;;;;;;23.38;15.75;;;;;;;;;;6158924;23;20017;-84
2022/03/28 13:55:03;;;;;;;23.00;16.10;;;;;;;;;;6158779;23;20067;-84
2022/03/28 13:57:29;;;;;;;23.52;15.30;;;;;;;;;;6158805;23;20075;-84
2022/03/28 13:59:55;;;;;;;22.80;15.98;;;;;;;;;;6156183;23;20323;-84
2022/03/28 14:02:21;;;;;;;21.83;15.57;;;;;;;;;;6158880;23;20021;-84
2022/03/28 14:04:47;;;;;;;22.42;15.07;;;;;;;;;;6133796;23;20016;-84
2022/03/28 14:07:13;;;;;;;21.08;14.65;;;;;;;;;;6185591;23;20079;-84
2022/03/28 14:09:40;;;;;;;19.75;15.85;;;;;;;;;;6185495;23;20017;-84
2022/03/28 14:12:06;;;;;;;21.17;15.60;;;;;;;;;;6159312;23;20064;-84
2022/03/28 14:14:35;;;;;;;20.05;16.58;;;;;;;;;;6158854;23;20465;-84
2022/03/28 14:17:01;;;;;;;20.92;15.70;;;;;;;;;;6159490;23;20021;-84
2022/03/28 14:19:27;;;;;;;21.90;14.18;;;;;;;;;;6157483;23;20350;-85
2022/03/28 14:21:55;;;;;;;21.52;15.38;;;;;;;;;;6159055;23;20028;-84